Flight Briefing for CPX302

Departure Arrival
Daniel K Inouye International Airport (PHNL)
Click to view FAA NOTAMS
Guam International Airport (PGUM)
Click to view FAA NOTAMS
Departure Time Arrival Time
N/A N/A
Aircraft Distance
B767-300BDSF 3303nm
Departure METAR Arrival METAR
PHNL 151953Z 02011KT 10SM FEW025 SCT040 BKN060 23/15 A3002 RMK AO2 SLP165 T02330150 PGUM 151954Z 06009KT 10SM FEW026 SCT055 24/23 A3000 RMK AO2 SLP150 T02440228
Suggested Route
KEOLA2 NONNI BRIUN 2000N/17000W 1800N/18000E 1600N/17000E 1500N/16000E 1500N/15000E DEWSS


View recent IFR Routes data
Notes



Charts and Procedures

Charts for PHNL
No chart available
Charts for PGUM
No chart available

Ventusky Weather